createdAt,value
2023-05-14T09:56:09.896Z,21.07
2023-05-14T09:58:37.678Z,21.26
2023-05-14T10:01:06.653Z,21.15
2023-05-14T10:03:34.427Z,21.42
2023-05-14T10:06:07.216Z,21.31
2023-05-14T10:08:36.887Z,21.26
2023-05-14T10:11:07.852Z,21.53
2023-05-14T10:13:40.891Z,21.83
2023-05-14T10:16:15.678Z,22.07
2023-05-14T10:18:48.579Z,22.39
2023-05-14T10:21:18.460Z,22.65
2023-05-14T10:23:47.440Z,22.75
2023-05-14T10:26:15.670Z,22.81
2023-05-14T10:28:44.912Z,23.04
2023-05-14T10:31:13.896Z,23.05
2023-05-14T10:33:50.195Z,23.21
2023-05-14T10:36:19.035Z,23.21
2023-05-14T10:38:47.775Z,23.20
2023-05-14T10:41:17.785Z,23.14
2023-05-14T10:43:46.888Z,23.34
2023-05-14T10:46:15.765Z,23.39
2023-05-14T10:48:44.716Z,23.42
2023-05-14T10:51:13.415Z,23.47
2023-05-14T10:53:43.491Z,23.62
2023-05-14T10:56:12.881Z,23.78
2023-05-14T10:58:43.701Z,23.81
2023-05-14T11:01:14.157Z,24.01
2023-05-14T11:03:43.408Z,24.10
2023-05-14T11:06:13.037Z,24.11
2023-05-14T11:08:41.644Z,23.99
2023-05-14T11:11:10.484Z,23.91
2023-05-14T11:13:38.468Z,23.97
2023-05-14T11:18:41.717Z,24.16
2023-05-14T11:21:09.659Z,24.17
2023-05-14T11:23:37.417Z,23.89
2023-05-14T11:26:05.479Z,24.08
2023-05-14T11:28:33.301Z,23.97
2023-05-14T11:31:01.012Z,24.01
2023-05-14T11:33:28.894Z,24.26
2023-05-14T11:35:58.067Z,24.57
2023-05-14T11:38:25.784Z,24.63
2023-05-14T11:40:54.475Z,24.48
2023-05-14T11:43:23.753Z,24.38
2023-05-14T11:45:52.559Z,24.74
2023-05-14T11:48:20.501Z,25.13
2023-05-14T11:50:49.622Z,25.32
2023-05-14T11:53:26.367Z,25.46
2023-05-14T11:55:55.282Z,25.36
2023-05-14T11:58:23.268Z,25.83
2023-05-14T12:00:52.409Z,25.94
2023-05-14T12:03:25.510Z,26.15
2023-05-14T12:05:57.895Z,26.30
2023-05-14T12:08:31.266Z,24.39
2023-05-14T12:11:00.542Z,25.02
2023-05-14T12:13:29.332Z,24.64
2023-05-14T12:15:58.614Z,25.03
2023-05-14T12:18:28.190Z,25.51
2023-05-14T12:20:56.320Z,25.43
2023-05-14T12:23:30.215Z,25.45
2023-05-14T12:26:03.500Z,25.81
2023-05-14T12:28:31.649Z,25.96
2023-05-14T12:31:00.064Z,26.27
2023-05-14T12:33:28.546Z,26.61
2023-05-14T12:35:58.890Z,26.37
2023-05-14T12:38:29.869Z,26.53
2023-05-14T12:40:57.596Z,26.77
2023-05-14T12:43:25.419Z,26.58
2023-05-14T12:45:53.049Z,26.13
2023-05-14T12:48:20.728Z,26.81
2023-05-14T12:50:48.809Z,27.21
2023-05-14T12:53:16.954Z,27.53
2023-05-14T12:55:46.323Z,27.60
2023-05-14T12:58:13.979Z,26.50
2023-05-14T13:00:41.817Z,27.06
2023-05-14T13:03:09.642Z,27.62
2023-05-14T13:05:37.403Z,27.30
2023-05-14T13:08:05.119Z,27.10
2023-05-14T13:10:32.860Z,26.80
2023-05-14T13:13:02.929Z,27.01
2023-05-14T13:15:31.606Z,27.26
2023-05-14T13:17:59.445Z,27.31
2023-05-14T13:20:27.546Z,27.04
2023-05-14T13:22:55.482Z,27.29
2023-05-14T13:25:23.315Z,27.19
2023-05-14T13:27:51.697Z,27.07
2023-05-14T13:30:21.260Z,27.25
2023-05-14T13:32:49.411Z,27.18
2023-05-14T13:35:17.292Z,27.19
2023-05-14T13:37:45.285Z,26.77
2023-05-14T13:40:13.409Z,26.75
2023-05-14T13:42:41.061Z,26.99
2023-05-14T13:45:09.699Z,27.08
2023-05-14T13:47:40.093Z,27.07
2023-05-14T13:50:08.821Z,26.68
2023-05-14T13:52:37.811Z,27.25
2023-05-14T13:55:06.461Z,27.30
2023-05-14T13:57:34.132Z,26.83
2023-05-14T14:00:02.304Z,26.83
2023-05-14T14:02:31.286Z,26.53
2023-05-14T14:05:00.914Z,27.02
2023-05-14T14:07:28.586Z,27.23
2023-05-14T14:09:56.303Z,27.48
2023-05-14T14:12:24.069Z,27.75
2023-05-14T14:14:52.241Z,27.74
2023-05-14T14:17:20.030Z,27.68
2023-05-14T14:19:47.834Z,27.34
2023-05-14T14:22:17.429Z,27.45
2023-05-14T14:24:45.306Z,27.71
2023-05-14T14:27:13.012Z,27.63
2023-05-14T14:29:40.704Z,27.43
2023-05-14T14:32:08.873Z,27.05
2023-05-14T14:34:36.737Z,26.97
2023-05-14T14:37:04.450Z,26.86
2023-05-14T14:39:33.546Z,26.89
2023-05-14T14:42:01.275Z,26.75
2023-05-14T14:44:28.962Z,26.45
2023-05-14T14:46:56.728Z,26.52
2023-05-14T14:49:24.782Z,26.56
2023-05-14T14:51:52.358Z,26.57
2023-05-14T14:54:20.075Z,26.60
2023-05-14T14:56:52.266Z,26.42
2023-05-14T14:59:19.986Z,26.33
2023-05-14T15:01:47.797Z,26.29
2023-05-14T15:04:15.671Z,26.11
2023-05-14T15:06:43.360Z,25.80
2023-05-14T15:09:11.063Z,25.89
2023-05-14T15:11:38.740Z,25.78
2023-05-14T15:14:07.921Z,25.74
2023-05-14T15:16:35.749Z,25.64
2023-05-14T15:19:03.707Z,25.23
2023-05-14T15:21:31.999Z,24.97
2023-05-14T15:23:59.805Z,24.74
2023-05-14T15:26:27.453Z,24.75
2023-05-14T15:28:55.432Z,24.71
2023-05-14T15:31:24.738Z,24.68
2023-05-14T15:33:52.964Z,24.38
2023-05-14T15:36:20.770Z,24.43
2023-05-14T15:38:48.746Z,23.87
2023-05-14T15:41:16.547Z,24.22
2023-05-14T15:43:44.293Z,24.16
2023-05-14T15:46:12.577Z,24.12
2023-05-14T15:48:42.141Z,24.24
2023-05-14T15:51:09.919Z,24.30
2023-05-14T15:53:37.742Z,24.34
2023-05-14T15:56:05.923Z,24.30
2023-05-14T15:58:33.452Z,24.14
2023-05-14T16:01:01.483Z,24.03
2023-05-14T16:03:29.309Z,23.75
2023-05-14T16:05:58.412Z,23.64
2023-05-14T16:08:26.098Z,23.49
2023-05-14T16:10:53.814Z,23.32
2023-05-14T16:13:21.441Z,23.43
2023-05-14T16:15:49.470Z,23.12
2023-05-14T16:18:17.485Z,22.99
2023-05-14T16:20:45.170Z,22.92
2023-05-14T16:23:14.531Z,22.65
2023-05-14T16:25:42.365Z,22.68
2023-05-14T16:28:10.150Z,22.40
2023-05-14T16:30:37.811Z,22.43
2023-05-14T16:33:06.408Z,22.19
2023-05-14T16:35:34.240Z,22.28
2023-05-14T16:38:02.042Z,22.07
2023-05-14T16:40:31.083Z,22.02
2023-05-14T16:42:58.795Z,21.77
2023-05-14T16:45:26.710Z,21.61
2023-05-14T16:47:54.732Z,21.48
2023-05-14T16:50:22.484Z,21.07
2023-05-14T16:52:50.332Z,20.95
2023-05-14T16:55:19.491Z,20.82
2023-05-14T16:57:48.710Z,20.80
2023-05-14T17:00:17.886Z,20.65
2023-05-14T17:02:49.070Z,20.63
2023-05-14T17:05:17.307Z,20.54
2023-05-14T17:07:45.060Z,20.32
2023-05-14T17:10:12.740Z,20.34
2023-05-14T17:12:40.504Z,20.35
2023-05-14T17:15:10.864Z,20.08
2023-05-14T17:17:38.671Z,20.03
2023-05-14T17:20:07.352Z,19.88
2023-05-14T17:22:35.521Z,19.58
2023-05-14T17:25:03.710Z,19.55
2023-05-14T17:27:33.286Z,19.40
2023-05-14T17:30:01.641Z,19.28
2023-05-14T17:32:31.256Z,19.33
2023-05-14T17:34:59.286Z,19.32
2023-05-14T17:37:27.400Z,19.14
2023-05-14T17:39:55.267Z,18.99
2023-05-14T17:42:22.987Z,18.86
2023-05-14T17:44:50.734Z,18.66
2023-05-14T17:47:20.601Z,18.65
2023-05-14T17:49:50.836Z,18.71
2023-05-14T17:52:19.087Z,18.68
2023-05-14T17:54:46.910Z,18.46
2023-05-14T17:57:14.627Z,18.40
2023-05-14T17:59:42.449Z,18.38
2023-05-14T18:02:10.137Z,18.31
2023-05-14T18:04:39.725Z,18.12
2023-05-14T18:07:08.905Z,18.06
2023-05-14T18:09:36.679Z,17.92
2023-05-14T18:12:04.463Z,17.85
2023-05-14T18:14:32.243Z,17.88
2023-05-14T18:17:00.082Z,17.72
2023-05-14T18:19:27.987Z,17.67
2023-05-14T18:21:56.204Z,17.63
2023-05-14T18:24:26.171Z,17.56
2023-05-14T18:26:53.997Z,17.52
2023-05-14T18:29:21.797Z,17.50
2023-05-14T18:31:49.586Z,17.41
2023-05-14T18:34:18.025Z,17.34
2023-05-14T18:36:47.884Z,17.26
2023-05-14T18:39:20.145Z,17.09
2023-05-14T18:41:53.175Z,16.92
2023-05-14T18:44:21.171Z,16.72
2023-05-14T18:46:49.230Z,16.68
2023-05-14T18:49:17.236Z,16.72
2023-05-14T18:51:45.170Z,16.68
2023-05-14T18:54:13.078Z,16.45
2023-05-14T18:56:45.519Z,16.39
2023-05-14T18:59:19.114Z,16.40
2023-05-14T19:01:47.098Z,16.38
2023-05-14T19:04:14.974Z,16.13
2023-05-14T19:06:42.985Z,16.21
2023-05-14T19:09:10.854Z,16.20
2023-05-14T19:11:38.912Z,16.10
2023-05-14T19:14:06.857Z,16.11
2023-05-14T19:16:36.536Z,16.10
2023-05-14T19:19:05.048Z,16.20
2023-05-14T19:21:32.818Z,16.34
2023-05-14T19:24:02.982Z,16.35
2023-05-14T19:26:30.798Z,16.35
2023-05-14T19:28:59.070Z,16.23
2023-05-14T19:31:27.058Z,16.01
2023-05-14T19:33:56.387Z,15.83
2023-05-14T19:36:24.092Z,15.68
2023-05-14T19:38:51.823Z,15.60
2023-05-14T19:41:19.571Z,15.54
2023-05-14T19:43:47.340Z,15.51
2023-05-14T19:46:15.200Z,15.45
2023-05-14T19:48:43.036Z,15.40
2023-05-14T19:51:12.109Z,15.42
2023-05-14T19:53:39.869Z,15.40
2023-05-14T19:56:07.705Z,15.36
2023-05-14T19:58:35.458Z,15.32
2023-05-14T20:01:03.257Z,15.24
2023-05-14T20:03:31.143Z,15.27
2023-05-14T20:05:58.894Z,15.24
2023-05-14T20:08:29.024Z,15.16
2023-05-14T20:10:56.964Z,15.12
2023-05-14T20:13:25.483Z,15.02
2023-05-14T20:15:54.995Z,15.02
2023-05-14T20:18:22.947Z,14.97
2023-05-14T20:20:50.664Z,14.91
2023-05-14T20:23:18.513Z,14.88
2023-05-14T20:25:47.798Z,14.78
2023-05-14T20:28:15.684Z,14.80
2023-05-14T20:30:43.350Z,14.72
2023-05-14T20:33:12.959Z,14.57
2023-05-14T20:35:43.829Z,14.56
2023-05-14T20:38:12.739Z,14.55
2023-05-14T20:40:41.110Z,14.54
2023-05-14T20:43:10.289Z,14.55
2023-05-14T20:45:38.029Z,14.49
2023-05-14T20:48:10.046Z,14.44
2023-05-14T20:50:37.954Z,14.42
2023-05-14T20:53:05.887Z,14.40
2023-05-14T20:55:33.943Z,14.34
2023-05-14T20:58:01.720Z,14.28
2023-05-14T21:00:31.096Z,14.24
2023-05-14T21:03:00.207Z,14.25
2023-05-14T21:05:28.271Z,14.15
2023-05-14T21:07:56.103Z,14.06
2023-05-14T21:10:24.044Z,14.05
2023-05-14T21:12:52.448Z,14.02
2023-05-14T21:15:20.593Z,14.00
2023-05-14T21:17:49.756Z,13.91
2023-05-14T21:20:17.609Z,13.89
2023-05-14T21:22:45.756Z,13.81
2023-05-14T21:25:13.711Z,13.79
2023-05-14T21:27:41.448Z,13.69
2023-05-14T21:30:10.520Z,13.69
2023-05-14T21:32:38.222Z,13.65
2023-05-14T21:35:08.097Z,13.61
2023-05-14T21:37:35.959Z,13.58
2023-05-14T21:40:03.645Z,13.55
2023-05-14T21:42:31.428Z,13.46
2023-05-14T21:44:59.093Z,13.41
2023-05-14T21:47:27.661Z,13.44
2023-05-14T21:49:55.269Z,13.44
2023-05-14T21:52:24.367Z,13.42
2023-05-14T21:54:52.116Z,13.39
2023-05-14T21:57:20.075Z,13.37
2023-05-14T21:59:50.480Z,13.35
2023-05-14T22:02:18.357Z,13.36
2023-05-14T22:04:46.903Z,13.31
2023-05-14T22:07:14.581Z,13.31
2023-05-14T22:09:46.492Z,13.25
2023-05-14T22:12:14.275Z,13.23
2023-05-14T22:14:42.031Z,13.20
2023-05-14T22:17:09.824Z,13.20
2023-05-14T22:19:37.435Z,13.17
2023-05-14T22:22:05.526Z,13.20
2023-05-14T22:24:33.120Z,13.17
2023-05-14T22:27:02.298Z,13.15
2023-05-14T22:29:30.078Z,13.15
2023-05-14T22:31:57.974Z,13.13
2023-05-14T22:34:25.736Z,13.09
2023-05-14T22:36:53.562Z,13.08
2023-05-14T22:39:21.463Z,13.09
2023-05-14T22:41:54.728Z,13.08
2023-05-14T22:44:24.127Z,13.00
2023-05-14T22:46:52.102Z,12.93
2023-05-14T22:49:19.784Z,13.01
2023-05-14T22:51:47.445Z,12.99
2023-05-14T22:54:15.112Z,12.99
2023-05-14T22:56:42.878Z,13.02
2023-05-14T22:59:10.646Z,12.97
2023-05-14T23:01:40.526Z,12.95
2023-05-14T23:04:08.324Z,12.97
2023-05-14T23:06:36.464Z,12.96
2023-05-14T23:09:04.207Z,12.97
2023-05-14T23:11:31.950Z,12.97
2023-05-14T23:13:59.644Z,12.95
2023-05-14T23:16:27.412Z,12.93
2023-05-14T23:18:56.528Z,12.91
2023-05-14T23:21:24.689Z,12.85
2023-05-14T23:23:52.400Z,12.85
2023-05-14T23:26:20.108Z,12.88
2023-05-14T23:28:48.293Z,12.84
2023-05-14T23:31:16.094Z,12.77
2023-05-14T23:33:45.037Z,12.78
2023-05-14T23:36:14.257Z,12.57
2023-05-14T23:38:42.148Z,12.54
2023-05-14T23:41:09.837Z,12.55
2023-05-14T23:43:38.165Z,12.61
2023-05-14T23:46:06.218Z,12.60
2023-05-14T23:48:33.922Z,12.62
2023-05-14T23:51:01.760Z,12.60
2023-05-14T23:53:30.849Z,12.55
2023-05-14T23:55:58.664Z,12.59
2023-05-14T23:58:26.483Z,12.54
